• Join FlightAware (Why Join?)
  • Login
  • US Flag 
02:27PM EDT


 

Airport Tracker/Info


-or-


 

Live Flight TrackerFlight Track Log ✈ N53NW ✈ 22-Oct-2013 ✈ KAAO - KDFW

Flight Track Log - Related Links

Times and Time Zones

All times are in EDT time to prevent confusion due to time zone crossing. See the N53NW flight status page for this flight to view local times or setup timezone preferences in your user account.

Time Position Orientation Groundspeed Altitude Reporting Facility
EDT Latitude Longitude Course Direction KTS MPH feet Rate Location/Type
04:24PM 37.7586 -97.2189 72° East 162 186 2,100  Level Kansas City Center
04:25PM 37.7783 -97.1417 72° East 254 292 3,500 1,680 Climbing Kansas City Center
04:26PM 37.7558 -97.0953 122° Southeast 249 287 5,300 2,880 Climbing Kansas City Center
04:26PM 37.7356 -97.0928 174° South 264 304 6,100 3,360 Climbing Kansas City Center
04:27PM 37.6894 -97.1231 207° Southwest 263 303 8,800 3,360 Climbing Kansas City Center
04:28PM 37.6175 -97.1708 208° Southwest 289 333 12,400 3,420 Climbing Kansas City Center
04:29PM 37.5261 -97.1783 184° South 330 380 16,000 3,240 Climbing Kansas City Center
04:30PM 37.4319 -97.1761 179° South 336 387 19,200 3,000 Climbing Kansas City Center
04:31PM 37.3128 -97.1728 179° South 349 402 22,300 2,340 Climbing Kansas City Center
04:32PM 37.2031 -97.1711 179° South 378 435 24,100 1,800 Climbing Kansas City Center
04:33PM 37.0883 -97.1667 178° South 403 464 26,100 1,860 Climbing Kansas City Center
04:34PM 36.9697 -97.1594 177° South 421 484 28,000 900 Climbing Kansas City Center
04:35PM 36.8464 -97.1572 179° South 436 502 28,000  Level Kansas City Center
04:36PM 36.7214 -97.1608 181° South 440 506 28,000  Level Kansas City Center
04:37PM 36.6086 -97.2044 197° South 441 507 28,000  Level Kansas City Center
04:38PM 36.4714 -97.2508 195° South 427 491 28,000  Level Kansas City Center
04:39PM 36.3583 -97.2883 195° South 422 486 28,000  Level Kansas City Center
04:40PM 36.2450 -97.3253 195° South 422 486 28,000  Level Kansas City Center
04:41PM 36.1311 -97.3619 195° South 423 487 28,000  Level Kansas City Center
04:42PM 36.0186 -97.3981 195° South 420 483 28,000  Level Kansas City Center
04:43PM 35.8836 -97.4408 194° South 419 482 28,000  Level Kansas City Center
04:44PM 35.7711 -97.4769 195° South 419 482 28,000  Level Kansas City Center
04:45PM 35.6589 -97.5142 195° South 420 483 28,000  Level Kansas City Center
04:46PM 35.5897 -97.5411 198° South 417 480 28,000  Level Fort Worth Center
04:47PM 35.4769 -97.5767 194° South 417 480 28,000  Level Fort Worth Center
04:48PM 35.3622 -97.6122 194° South 417 480 28,000  Level Fort Worth Center
04:49PM 35.2517 -97.5992 174° South 422 486 28,000  Level Fort Worth Center
04:50PM 35.1350 -97.5811 173° South 422 486 28,000  Level Fort Worth Center
04:51PM 35.0181 -97.5631 173° South 427 491 28,000  Level Fort Worth Center
04:52PM 34.8972 -97.5478 174° South 427 491 28,000  Level Fort Worth Center
04:53PM 34.7806 -97.5297 173° South 427 491 28,000  Level Fort Worth Center
04:54PM 34.6617 -97.5119 173° South 427 491 28,000 -180 Level Fort Worth Center
04:55PM 34.5425 -97.4967 174° South 427 491 27,700 -780 Descending Fort Worth Center
04:56PM 34.4258 -97.4789 173° South 427 491 26,500 -1,200 Descending Fort Worth Center
04:57PM 34.3089 -97.4714 177° South 427 491 25,300 -1,200 Descending Fort Worth Center
04:58PM 34.2047 -97.5139 199° South 411 473 24,100 -900 Descending Fort Worth Center
04:59PM 34.1003 -97.5514 197° South 399 459 23,600 -1,140 Descending Fort Worth Center
05:00PM 33.9958 -97.5639 186° South 386 444 21,900 -1,800 Descending Fort Worth Center
05:01PM 33.8811 -97.5836 188° South 385 443 20,000 -1,800 Descending Fort Worth Center
05:02PM 33.8203 -97.6658 228° Southwest 329 379 18,300 -1,560 Descending Fort Worth Center
05:03PM 33.7325 -97.7083 202° Southwest 334 384 16,900 -1,500 Descending Fort Worth Center
05:04PM 33.6469 -97.7178 185° South 341 392 15,300 -1,680 Descending Fort Worth Center
05:05PM 33.5406 -97.7200 181° South 341 392 13,600 -1,560 Descending Fort Worth Center
05:06PM 33.4633 -97.6800 157° South 341 392 12,200 -1,320 Descending Fort Worth Center
05:07PM 33.3697 -97.6250 154° Southeast 343 395 11,000 -780 Descending Fort Worth Center
05:07PM 33.3333 -97.5833 136° Southeast 322 371 11,000  Level Dallas / Fort Worth TRACON
05:09PM 33.2667 -97.5000 134° Southeast 321 369 11,000  Level Dallas / Fort Worth TRACON
05:09PM 33.2000 -97.4333 140° Southeast 322 371 11,000  Level Dallas / Fort Worth TRACON
05:11PM 33.1333 -97.3500 134° Southeast 322 371 11,000  Level Dallas / Fort Worth TRACON
05:12PM 33.0667 -97.2667 134° Southeast 324 373 11,000  Level Dallas / Fort Worth TRACON
05:13PM 33.0167 -97.2000 132° Southeast 283 326 11,000 -120 Level Dallas / Fort Worth TRACON
05:14PM 32.9500 -97.1667 157° South 287 330 10,800 -1,140 Descending Dallas / Fort Worth TRACON
05:15PM 32.8500 -97.1667 180° South 276 318 8,700 -1,860 Descending Dallas / Fort Worth TRACON
05:16PM 32.7833 -97.1667 180° South 251 289 7,000 -1,380 Descending Dallas / Fort Worth TRACON
05:17PM 32.7167 -97.1667 180° South 241 277 6,000 -1,020 Descending Dallas / Fort Worth TRACON
05:18PM 32.6500 -97.1667 180° South 232 267 5,000 -1,380 Descending Dallas / Fort Worth TRACON
05:19PM 32.6667 -97.1000 73° East 190 219 3,300 -960 Descending Dallas / Fort Worth TRACON
05:20PM 32.7167 -97.0667 29° Northeast 200 230 3,000 -240 Descending Dallas / Fort Worth TRACON
05:21PM 32.7500 -97.0500 23° Northeast 179 206 2,900 -480 Descending Dallas / Fort Worth TRACON
05:22PM 32.8000 -97.0500 360° North 174 200 2,100 -900 Descending Dallas / Fort Worth TRACON
05:23PM 32.8500 -97.0500 360° North 118 136 1,200 -900 Descending Dallas / Fort Worth TRACON
05:25PM 32.8833 -97.0333 140° Southeast  Level FlightAware Approximate